Orleans, Massachusetts
Current Conditions -  °F | °C
As of 7:52 AM on Friday 19 Dec 2014 (Local Time) from KCQX Reporting Station
Overcast Overcast  
Wind Chill: 31°   Ceiling: 2800
Heat Index: 36°   Visibility: 10mi
Dew Point: 27°   Wind: 6mph
Humidity: 70%   Direction: NA
Pressure: 29.91"   Gusts: NA
Location:  41.79°N, 69.99°W
Report Text: KCQX 191252Z AUTO VRB05KT 10SM OVC028 02/M03 A2991 RMK AO2 SLP129 T00221028
Loading
Personal Weather Stations






























Interactive Weather Map New forecast layout! Learn more

10-Day Weather Forecast

Advertisements
Track Severe Weather on mobile